sensor_id;sensor_type;location;lat;lon;timestamp;P1;durP1;ratioP1;P2;durP2;ratioP2
49472;SDS011;67434;50.956;6.918;2023-03-04T00:01:14;73.38;;;25.20;;
49472;SDS011;67434;50.956;6.918;2023-03-04T00:03:40;66.40;;;25.00;;
49472;SDS011;67434;50.956;6.918;2023-03-04T00:06:05;67.28;;;26.90;;
49472;SDS011;67434;50.956;6.918;2023-03-04T00:08:32;61.45;;;23.92;;
49472;SDS011;67434;50.956;6.918;2023-03-04T00:10:57;74.50;;;24.55;;
49472;SDS011;67434;50.956;6.918;2023-03-04T00:13:23;71.60;;;24.58;;
49472;SDS011;67434;50.956;6.918;2023-03-04T00:15:49;65.32;;;23.05;;
49472;SDS011;67434;50.956;6.918;2023-03-04T00:18:14;58.80;;;21.00;;
49472;SDS011;67434;50.956;6.918;2023-03-04T00:20:40;56.60;;;20.13;;
49472;SDS011;67434;50.956;6.918;2023-03-04T00:23:05;68.28;;;23.88;;
49472;SDS011;67434;50.956;6.918;2023-03-04T00:25:31;56.00;;;20.88;;
49472;SDS011;67434;50.956;6.918;2023-03-04T00:27:57;63.17;;;22.55;;
49472;SDS011;67434;50.956;6.918;2023-03-04T00:30:23;59.78;;;20.95;;
49472;SDS011;67434;50.956;6.918;2023-03-04T00:32:48;51.28;;;19.00;;
49472;SDS011;67434;50.956;6.918;2023-03-04T00:35:14;59.42;;;20.42;;
49472;SDS011;67434;50.956;6.918;2023-03-04T00:37:40;58.03;;;21.05;;
49472;SDS011;67434;50.956;6.918;2023-03-04T00:40:06;55.83;;;19.73;;
49472;SDS011;67434;50.956;6.918;2023-03-04T00:42:32;59.85;;;21.60;;
49472;SDS011;67434;50.956;6.918;2023-03-04T00:44:57;51.60;;;19.67;;
49472;SDS011;67434;50.956;6.918;2023-03-04T00:47:22;55.70;;;19.13;;
49472;SDS011;67434;50.956;6.918;2023-03-04T00:49:48;50.25;;;17.20;;
49472;SDS011;67434;50.956;6.918;2023-03-04T00:52:13;45.67;;;17.83;;
49472;SDS011;67434;50.956;6.918;2023-03-04T00:54:39;45.03;;;16.73;;
49472;SDS011;67434;50.956;6.918;2023-03-04T00:57:04;44.50;;;16.45;;
49472;SDS011;67434;50.956;6.918;2023-03-04T00:59:29;41.10;;;16.23;;
49472;SDS011;67434;50.956;6.918;2023-03-04T01:01:55;41.85;;;17.10;;
49472;SDS011;67434;50.956;6.918;2023-03-04T01:04:20;42.30;;;15.60;;
49472;SDS011;67434;50.956;6.918;2023-03-04T01:06:45;39.08;;;15.10;;
49472;SDS011;67434;50.956;6.918;2023-03-04T01:09:11;33.55;;;13.88;;
49472;SDS011;67434;50.956;6.918;2023-03-04T01:11:36;35.85;;;14.68;;
49472;SDS011;67434;50.956;6.918;2023-03-04T01:14:02;39.25;;;14.57;;
49472;SDS011;67434;50.956;6.918;2023-03-04T01:16:27;39.92;;;13.80;;
49472;SDS011;67434;50.956;6.918;2023-03-04T01:18:52;35.33;;;13.65;;
49472;SDS011;67434;50.956;6.918;2023-03-04T01:21:18;34.05;;;13.15;;
49472;SDS011;67434;50.956;6.918;2023-03-04T01:23:43;35.08;;;13.65;;
49472;SDS011;67434;50.956;6.918;2023-03-04T01:26:09;41.40;;;12.52;;
49472;SDS011;67434;50.956;6.918;2023-03-04T01:28:34;38.72;;;14.38;;
49472;SDS011;67434;50.956;6.918;2023-03-04T01:31:00;29.85;;;12.63;;
49472;SDS011;67434;50.956;6.918;2023-03-04T01:33:27;27.00;;;12.13;;
49472;SDS011;67434;50.956;6.918;2023-03-04T01:35:52;28.98;;;10.82;;
49472;SDS011;67434;50.956;6.918;2023-03-04T01:38:18;31.00;;;11.63;;
49472;SDS011;67434;50.956;6.918;2023-03-04T01:40:43;28.35;;;11.50;;
49472;SDS011;67434;50.956;6.918;2023-03-04T01:43:17;24.88;;;10.60;;
49472;SDS011;67434;50.956;6.918;2023-03-04T01:45:47;27.25;;;9.55;;
49472;SDS011;67434;50.956;6.918;2023-03-04T01:48:15;26.80;;;10.13;;
49472;SDS011;67434;50.956;6.918;2023-03-04T01:50:44;19.52;;;8.27;;
49472;SDS011;67434;50.956;6.918;2023-03-04T01:53:14;23.77;;;9.27;;
49472;SDS011;67434;50.956;6.918;2023-03-04T01:55:43;23.63;;;8.85;;
49472;SDS011;67434;50.956;6.918;2023-03-04T01:58:10;23.75;;;9.93;;
49472;SDS011;67434;50.956;6.918;2023-03-04T02:00:36;19.38;;;8.02;;
49472;SDS011;67434;50.956;6.918;2023-03-04T02:03:04;27.27;;;10.18;;
49472;SDS011;67434;50.956;6.918;2023-03-04T02:05:36;15.25;;;8.57;;
49472;SDS011;67434;50.956;6.918;2023-03-04T02:08:03;24.52;;;9.18;;
49472;SDS011;67434;50.956;6.918;2023-03-04T02:10:29;23.10;;;7.88;;
49472;SDS011;67434;50.956;6.918;2023-03-04T02:12:56;23.83;;;7.85;;
49472;SDS011;67434;50.956;6.918;2023-03-04T02:15:23;25.45;;;8.68;;
49472;SDS011;67434;50.956;6.918;2023-03-04T02:17:48;24.45;;;9.57;;
49472;SDS011;67434;50.956;6.918;2023-03-04T02:22:50;22.15;;;8.32;;
49472;SDS011;67434;50.956;6.918;2023-03-04T02:25:26;19.33;;;7.82;;
49472;SDS011;67434;50.956;6.918;2023-03-04T02:27:57;19.17;;;7.95;;
49472;SDS011;67434;50.956;6.918;2023-03-04T02:30:23;18.92;;;7.20;;
49472;SDS011;67434;50.956;6.918;2023-03-04T02:32:50;18.27;;;7.60;;
49472;SDS011;67434;50.956;6.918;2023-03-04T02:35:16;22.48;;;8.23;;
49472;SDS011;67434;50.956;6.918;2023-03-04T02:37:43;21.30;;;7.53;;
49472;SDS011;67434;50.956;6.918;2023-03-04T02:40:13;21.55;;;6.70;;
49472;SDS011;67434;50.956;6.918;2023-03-04T02:42:42;20.48;;;7.50;;
49472;SDS011;67434;50.956;6.918;2023-03-04T02:45:26;17.30;;;7.32;;
49472;SDS011;67434;50.956;6.918;2023-03-04T02:48:07;19.10;;;6.03;;
49472;SDS011;67434;50.956;6.918;2023-03-04T02:50:35;19.98;;;6.22;;
49472;SDS011;67434;50.956;6.918;2023-03-04T02:53:04;18.17;;;7.25;;
49472;SDS011;67434;50.956;6.918;2023-03-04T02:55:31;13.10;;;5.72;;
49472;SDS011;67434;50.956;6.918;2023-03-04T02:57:57;15.75;;;5.70;;
49472;SDS011;67434;50.956;6.918;2023-03-04T03:00:22;14.50;;;5.75;;
49472;SDS011;67434;50.956;6.918;2023-03-04T03:02:48;18.92;;;7.20;;
49472;SDS011;67434;50.956;6.918;2023-03-04T03:05:13;13.35;;;5.22;;
49472;SDS011;67434;50.956;6.918;2023-03-04T03:07:39;18.35;;;5.88;;
49472;SDS011;67434;50.956;6.918;2023-03-04T03:10:04;23.33;;;5.20;;
49472;SDS011;67434;50.956;6.918;2023-03-04T03:12:30;15.02;;;5.43;;
49472;SDS011;67434;50.956;6.918;2023-03-04T03:14:55;15.00;;;4.82;;
49472;SDS011;67434;50.956;6.918;2023-03-04T03:17:21;18.38;;;5.47;;
49472;SDS011;67434;50.956;6.918;2023-03-04T03:19:46;21.10;;;6.07;;
49472;SDS011;67434;50.956;6.918;2023-03-04T03:22:11;16.33;;;5.80;;
49472;SDS011;67434;50.956;6.918;2023-03-04T03:24:36;14.98;;;5.72;;
49472;SDS011;67434;50.956;6.918;2023-03-04T03:27:02;18.83;;;5.55;;
49472;SDS011;67434;50.956;6.918;2023-03-04T03:29:27;14.30;;;4.97;;
49472;SDS011;67434;50.956;6.918;2023-03-04T03:31:53;18.08;;;5.05;;
49472;SDS011;67434;50.956;6.918;2023-03-04T03:34:18;24.55;;;5.60;;
49472;SDS011;67434;50.956;6.918;2023-03-04T03:36:44;13.18;;;5.13;;
49472;SDS011;67434;50.956;6.918;2023-03-04T03:39:09;12.48;;;4.25;;
49472;SDS011;67434;50.956;6.918;2023-03-04T03:41:35;14.88;;;4.75;;
49472;SDS011;67434;50.956;6.918;2023-03-04T03:44:00;17.63;;;5.60;;
49472;SDS011;67434;50.956;6.918;2023-03-04T03:46:25;17.02;;;4.50;;
49472;SDS011;67434;50.956;6.918;2023-03-04T03:48:51;16.85;;;6.15;;
49472;SDS011;67434;50.956;6.918;2023-03-04T03:51:16;19.08;;;5.88;;
49472;SDS011;67434;50.956;6.918;2023-03-04T03:53:42;16.73;;;5.35;;
49472;SDS011;67434;50.956;6.918;2023-03-04T03:56:07;12.75;;;5.22;;
49472;SDS011;67434;50.956;6.918;2023-03-04T03:58:33;20.35;;;6.47;;
49472;SDS011;67434;50.956;6.918;2023-03-04T04:00:58;14.70;;;4.05;;
49472;SDS011;67434;50.956;6.918;2023-03-04T04:03:23;16.73;;;6.47;;
49472;SDS011;67434;50.956;6.918;2023-03-04T04:05:49;23.95;;;5.63;;
49472;SDS011;67434;50.956;6.918;2023-03-04T04:08:15;16.65;;;4.80;;
49472;SDS011;67434;50.956;6.918;2023-03-04T04:10:41;13.60;;;4.60;;
49472;SDS011;67434;50.956;6.918;2023-03-04T04:13:07;19.02;;;4.88;;
49472;SDS011;67434;50.956;6.918;2023-03-04T04:15:33;16.77;;;4.72;;
49472;SDS011;67434;50.956;6.918;2023-03-04T04:17:58;18.52;;;5.22;;
49472;SDS011;67434;50.956;6.918;2023-03-04T04:20:24;17.48;;;5.00;;
49472;SDS011;67434;50.956;6.918;2023-03-04T04:22:49;18.17;;;5.28;;
49472;SDS011;67434;50.956;6.918;2023-03-04T04:25:16;22.10;;;5.47;;
49472;SDS011;67434;50.956;6.918;2023-03-04T04:27:41;17.13;;;5.03;;
49472;SDS011;67434;50.956;6.918;2023-03-04T04:30:07;14.88;;;4.75;;
49472;SDS011;67434;50.956;6.918;2023-03-04T04:32:33;19.17;;;4.78;;
49472;SDS011;67434;50.956;6.918;2023-03-04T04:34:58;11.50;;;4.50;;
49472;SDS011;67434;50.956;6.918;2023-03-04T04:37:24;16.38;;;4.28;;
49472;SDS011;67434;50.956;6.918;2023-03-04T04:39:49;19.98;;;5.68;;
49472;SDS011;67434;50.956;6.918;2023-03-04T04:42:15;16.45;;;4.63;;
49472;SDS011;67434;50.956;6.918;2023-03-04T04:44:41;12.38;;;4.70;;
49472;SDS011;67434;50.956;6.918;2023-03-04T04:47:08;17.90;;;4.63;;
49472;SDS011;67434;50.956;6.918;2023-03-04T04:49:33;18.05;;;4.32;;
49472;SDS011;67434;50.956;6.918;2023-03-04T04:51:59;20.27;;;5.55;;
49472;SDS011;67434;50.956;6.918;2023-03-04T04:54:25;22.33;;;6.13;;
49472;SDS011;67434;50.956;6.918;2023-03-04T04:56:50;18.70;;;6.78;;
49472;SDS011;67434;50.956;6.918;2023-03-04T04:59:15;29.92;;;9.43;;
49472;SDS011;67434;50.956;6.918;2023-03-04T05:01:41;28.73;;;9.38;;
49472;SDS011;67434;50.956;6.918;2023-03-04T05:04:06;28.80;;;9.32;;
49472;SDS011;67434;50.956;6.918;2023-03-04T05:06:32;30.77;;;10.30;;
49472;SDS011;67434;50.956;6.918;2023-03-04T05:08:57;33.22;;;10.88;;
49472;SDS011;67434;50.956;6.918;2023-03-04T05:11:22;33.15;;;11.82;;
49472;SDS011;67434;50.956;6.918;2023-03-04T05:13:48;35.47;;;11.27;;
49472;SDS011;67434;50.956;6.918;2023-03-04T05:16:14;33.38;;;10.63;;
49472;SDS011;67434;50.956;6.918;2023-03-04T05:18:40;41.28;;;12.50;;
49472;SDS011;67434;50.956;6.918;2023-03-04T05:21:06;40.05;;;11.55;;
49472;SDS011;67434;50.956;6.918;2023-03-04T05:23:33;40.90;;;11.32;;
49472;SDS011;67434;50.956;6.918;2023-03-04T05:26:01;32.70;;;10.32;;
49472;SDS011;67434;50.956;6.918;2023-03-04T05:28:27;38.03;;;11.57;;
49472;SDS011;67434;50.956;6.918;2023-03-04T05:30:52;30.83;;;11.05;;
49472;SDS011;67434;50.956;6.918;2023-03-04T05:33:18;36.03;;;10.93;;
49472;SDS011;67434;50.956;6.918;2023-03-04T05:35:44;31.77;;;9.65;;
49472;SDS011;67434;50.956;6.918;2023-03-04T05:38:11;29.23;;;9.32;;
49472;SDS011;67434;50.956;6.918;2023-03-04T05:40:38;22.92;;;8.25;;
49472;SDS011;67434;50.956;6.918;2023-03-04T05:43:03;26.17;;;6.93;;
49472;SDS011;67434;50.956;6.918;2023-03-04T05:45:29;22.98;;;8.27;;
49472;SDS011;67434;50.956;6.918;2023-03-04T05:47:54;16.45;;;5.50;;
49472;SDS011;67434;50.956;6.918;2023-03-04T05:50:21;22.98;;;6.43;;
49472;SDS011;67434;50.956;6.918;2023-03-04T05:52:48;19.52;;;5.18;;
49472;SDS011;67434;50.956;6.918;2023-03-04T05:55:14;16.17;;;5.03;;
49472;SDS011;67434;50.956;6.918;2023-03-04T05:57:40;16.35;;;5.15;;
49472;SDS011;67434;50.956;6.918;2023-03-04T06:00:06;16.05;;;4.25;;
49472;SDS011;67434;50.956;6.918;2023-03-04T06:02:35;12.88;;;3.97;;
49472;SDS011;67434;50.956;6.918;2023-03-04T06:05:01;18.25;;;6.43;;
49472;SDS011;67434;50.956;6.918;2023-03-04T06:07:27;17.13;;;4.43;;
49472;SDS011;67434;50.956;6.918;2023-03-04T06:09:53;18.35;;;5.72;;
49472;SDS011;67434;50.956;6.918;2023-03-04T06:12:18;17.80;;;4.00;;
49472;SDS011;67434;50.956;6.918;2023-03-04T06:14:43;20.88;;;3.88;;
49472;SDS011;67434;50.956;6.918;2023-03-04T06:17:09;18.40;;;4.30;;
49472;SDS011;67434;50.956;6.918;2023-03-04T06:19:34;13.70;;;3.83;;
49472;SDS011;67434;50.956;6.918;2023-03-04T06:22:02;9.25;;;2.83;;
49472;SDS011;67434;50.956;6.918;2023-03-04T06:24:27;14.25;;;3.20;;
49472;SDS011;67434;50.956;6.918;2023-03-04T06:26:53;8.93;;;2.20;;
49472;SDS011;67434;50.956;6.918;2023-03-04T06:29:18;20.90;;;2.80;;
49472;SDS011;67434;50.956;6.918;2023-03-04T06:31:43;11.32;;;2.85;;
49472;SDS011;67434;50.956;6.918;2023-03-04T06:34:09;9.90;;;2.72;;
49472;SDS011;67434;50.956;6.918;2023-03-04T06:36:35;6.82;;;2.58;;
49472;SDS011;67434;50.956;6.918;2023-03-04T06:39:02;17.02;;;2.30;;
49472;SDS011;67434;50.956;6.918;2023-03-04T06:41:29;6.65;;;2.63;;
49472;SDS011;67434;50.956;6.918;2023-03-04T06:43:54;10.05;;;2.53;;
49472;SDS011;67434;50.956;6.918;2023-03-04T06:46:19;13.52;;;2.70;;
49472;SDS011;67434;50.956;6.918;2023-03-04T06:48:45;14.50;;;2.92;;
49472;SDS011;67434;50.956;6.918;2023-03-04T06:51:10;13.90;;;2.88;;
49472;SDS011;67434;50.956;6.918;2023-03-04T06:53:37;12.52;;;3.78;;
49472;SDS011;67434;50.956;6.918;2023-03-04T06:56:03;9.02;;;2.78;;
49472;SDS011;67434;50.956;6.918;2023-03-04T06:58:29;15.77;;;2.90;;
49472;SDS011;67434;50.956;6.918;2023-03-04T07:00:55;10.23;;;3.03;;
49472;SDS011;67434;50.956;6.918;2023-03-04T07:03:20;8.77;;;2.72;;
49472;SDS011;67434;50.956;6.918;2023-03-04T07:05:46;14.00;;;3.47;;
49472;SDS011;67434;50.956;6.918;2023-03-04T07:08:12;14.00;;;2.78;;
49472;SDS011;67434;50.956;6.918;2023-03-04T07:10:37;14.65;;;2.53;;
49472;SDS011;67434;50.956;6.918;2023-03-04T07:13:02;10.52;;;2.97;;
49472;SDS011;67434;50.956;6.918;2023-03-04T07:15:28;7.38;;;3.08;;
49472;SDS011;67434;50.956;6.918;2023-03-04T07:17:53;5.90;;;1.90;;
49472;SDS011;67434;50.956;6.918;2023-03-04T07:20:19;10.77;;;2.15;;
49472;SDS011;67434;50.956;6.918;2023-03-04T07:22:45;7.05;;;1.98;;
49472;SDS011;67434;50.956;6.918;2023-03-04T07:25:10;9.93;;;2.30;;
49472;SDS011;67434;50.956;6.918;2023-03-04T07:27:35;11.10;;;2.55;;
49472;SDS011;67434;50.956;6.918;2023-03-04T07:30:03;10.10;;;2.35;;
49472;SDS011;67434;50.956;6.918;2023-03-04T07:32:29;7.22;;;2.30;;
49472;SDS011;67434;50.956;6.918;2023-03-04T07:34:55;5.18;;;1.90;;
49472;SDS011;67434;50.956;6.918;2023-03-04T07:37:20;12.40;;;2.30;;
49472;SDS011;67434;50.956;6.918;2023-03-04T07:39:46;14.82;;;2.55;;
49472;SDS011;67434;50.956;6.918;2023-03-04T07:42:12;13.07;;;2.70;;
49472;SDS011;67434;50.956;6.918;2023-03-04T07:44:37;11.40;;;2.70;;
49472;SDS011;67434;50.956;6.918;2023-03-04T07:47:02;8.30;;;2.75;;
49472;SDS011;67434;50.956;6.918;2023-03-04T07:49:28;19.23;;;2.67;;
49472;SDS011;67434;50.956;6.918;2023-03-04T07:51:53;6.07;;;2.35;;
49472;SDS011;67434;50.956;6.918;2023-03-04T07:54:18;7.80;;;2.42;;
49472;SDS011;67434;50.956;6.918;2023-03-04T07:56:44;6.43;;;2.20;;
49472;SDS011;67434;50.956;6.918;2023-03-04T07:59:10;13.85;;;2.38;;
49472;SDS011;67434;50.956;6.918;2023-03-04T08:01:36;8.55;;;1.92;;
49472;SDS011;67434;50.956;6.918;2023-03-04T08:04:02;2.65;;;1.38;;
49472;SDS011;67434;50.956;6.918;2023-03-04T08:06:29;9.43;;;1.77;;
49472;SDS011;67434;50.956;6.918;2023-03-04T08:08:59;17.55;;;2.80;;
49472;SDS011;67434;50.956;6.918;2023-03-04T08:11:28;8.45;;;2.35;;
49472;SDS011;67434;50.956;6.918;2023-03-04T08:13:55;14.43;;;2.08;;
49472;SDS011;67434;50.956;6.918;2023-03-04T08:16:22;8.52;;;2.20;;
49472;SDS011;67434;50.956;6.918;2023-03-04T08:18:49;8.15;;;2.05;;
49472;SDS011;67434;50.956;6.918;2023-03-04T08:21:17;10.18;;;2.13;;
49472;SDS011;67434;50.956;6.918;2023-03-04T08:23:44;10.57;;;2.15;;
49472;SDS011;67434;50.956;6.918;2023-03-04T08:26:12;7.72;;;1.60;;
49472;SDS011;67434;50.956;6.918;2023-03-04T08:28:43;5.07;;;1.50;;
49472;SDS011;67434;50.956;6.918;2023-03-04T08:31:10;4.30;;;1.75;;
49472;SDS011;67434;50.956;6.918;2023-03-04T08:33:37;4.43;;;1.95;;
49472;SDS011;67434;50.956;6.918;2023-03-04T08:36:02;3.47;;;1.73;;
49472;SDS011;67434;50.956;6.918;2023-03-04T08:38:28;8.43;;;1.70;;
49472;SDS011;67434;50.956;6.918;2023-03-04T08:40:54;8.77;;;1.83;;
49472;SDS011;67434;50.956;6.918;2023-03-04T08:43:21;5.28;;;1.50;;
49472;SDS011;67434;50.956;6.918;2023-03-04T08:45:47;12.00;;;2.38;;
49472;SDS011;67434;50.956;6.918;2023-03-04T08:48:13;10.38;;;2.05;;
49472;SDS011;67434;50.956;6.918;2023-03-04T08:50:39;9.00;;;2.10;;
49472;SDS011;67434;50.956;6.918;2023-03-04T08:53:04;5.68;;;1.52;;
49472;SDS011;67434;50.956;6.918;2023-03-04T08:55:29;8.60;;;1.55;;
49472;SDS011;67434;50.956;6.918;2023-03-04T08:57:55;13.68;;;1.60;;
49472;SDS011;67434;50.956;6.918;2023-03-04T09:00:20;4.35;;;1.77;;
49472;SDS011;67434;50.956;6.918;2023-03-04T09:02:48;6.97;;;1.48;;
49472;SDS011;67434;50.956;6.918;2023-03-04T09:05:13;8.38;;;2.67;;
49472;SDS011;67434;50.956;6.918;2023-03-04T09:07:39;6.68;;;1.67;;
49472;SDS011;67434;50.956;6.918;2023-03-04T09:10:04;8.25;;;1.63;;
49472;SDS011;67434;50.956;6.918;2023-03-04T09:12:30;6.55;;;1.42;;
49472;SDS011;67434;50.956;6.918;2023-03-04T09:14:55;9.82;;;1.77;;
49472;SDS011;67434;50.956;6.918;2023-03-04T09:17:21;4.32;;;1.30;;
49472;SDS011;67434;50.956;6.918;2023-03-04T09:19:47;3.30;;;1.45;;
49472;SDS011;67434;50.956;6.918;2023-03-04T09:22:12;9.25;;;2.10;;
49472;SDS011;67434;50.956;6.918;2023-03-04T09:24:38;6.65;;;1.75;;
49472;SDS011;67434;50.956;6.918;2023-03-04T09:27:03;5.95;;;1.27;;
49472;SDS011;67434;50.956;6.918;2023-03-04T09:29:29;5.00;;;1.50;;
49472;SDS011;67434;50.956;6.918;2023-03-04T09:31:54;6.65;;;1.15;;
49472;SDS011;67434;50.956;6.918;2023-03-04T09:34:20;8.52;;;1.80;;
49472;SDS011;67434;50.956;6.918;2023-03-04T09:36:45;6.20;;;1.33;;
49472;SDS011;67434;50.956;6.918;2023-03-04T09:39:11;5.25;;;1.65;;
49472;SDS011;67434;50.956;6.918;2023-03-04T09:41:41;3.28;;;0.98;;
49472;SDS011;67434;50.956;6.918;2023-03-04T09:44:27;14.32;;;1.98;;
49472;SDS011;67434;50.956;6.918;2023-03-04T09:46:58;10.70;;;1.15;;
49472;SDS011;67434;50.956;6.918;2023-03-04T09:49:27;4.68;;;1.17;;
49472;SDS011;67434;50.956;6.918;2023-03-04T09:52:08;8.90;;;1.98;;
49472;SDS011;67434;50.956;6.918;2023-03-04T09:57:27;7.95;;;1.35;;
49472;SDS011;67434;50.956;6.918;2023-03-04T10:05:16;7.38;;;0.90;;
49472;SDS011;67434;50.956;6.918;2023-03-04T10:07:46;1.10;;;0.70;;
49472;SDS011;67434;50.956;6.918;2023-03-04T10:10:21;6.13;;;1.20;;
49472;SDS011;67434;50.956;6.918;2023-03-04T10:12:53;15.68;;;3.22;;
49472;SDS011;67434;50.956;6.918;2023-03-04T10:15:26;5.25;;;1.30;;
49472;SDS011;67434;50.956;6.918;2023-03-04T10:18:13;7.85;;;1.48;;
49472;SDS011;67434;50.956;6.918;2023-03-04T10:21:01;10.75;;;1.67;;
49472;SDS011;67434;50.956;6.918;2023-03-04T10:23:33;7.78;;;1.77;;
49472;SDS011;67434;50.956;6.918;2023-03-04T10:26:00;2.38;;;1.20;;
49472;SDS011;67434;50.956;6.918;2023-03-04T10:28:37;5.40;;;1.48;;
49472;SDS011;67434;50.956;6.918;2023-03-04T10:33:53;3.00;;;1.00;;
49472;SDS011;67434;50.956;6.918;2023-03-04T10:39:40;3.83;;;1.20;;
49472;SDS011;67434;50.956;6.918;2023-03-04T10:41:53;5.65;;;0.90;;
49472;SDS011;67434;50.956;6.918;2023-03-04T10:44:29;3.20;;;1.38;;
49472;SDS011;67434;50.956;6.918;2023-03-04T10:46:57;6.07;;;2.10;;
49472;SDS011;67434;50.956;6.918;2023-03-04T10:49:23;5.47;;;1.08;;
49472;SDS011;67434;50.956;6.918;2023-03-04T10:54:46;3.17;;;1.23;;
49472;SDS011;67434;50.956;6.918;2023-03-04T10:57:15;1.58;;;0.90;;
49472;SDS011;67434;50.956;6.918;2023-03-04T10:59:56;6.25;;;1.23;;
49472;SDS011;67434;50.956;6.918;2023-03-04T11:05:36;5.75;;;1.52;;
49472;SDS011;67434;50.956;6.918;2023-03-04T11:07:55;2.35;;;0.88;;
49472;SDS011;67434;50.956;6.918;2023-03-04T11:18:22;5.97;;;1.17;;
49472;SDS011;67434;50.956;6.918;2023-03-04T11:20:54;7.28;;;1.63;;
49472;SDS011;67434;50.956;6.918;2023-03-04T11:23:25;10.68;;;2.25;;
49472;SDS011;67434;50.956;6.918;2023-03-04T11:26:09;7.15;;;1.55;;
49472;SDS011;67434;50.956;6.918;2023-03-04T11:31:15;4.45;;;1.52;;
49472;SDS011;67434;50.956;6.918;2023-03-04T11:34:02;3.17;;;1.90;;
49472;SDS011;67434;50.956;6.918;2023-03-04T11:37:06;4.82;;;0.98;;
49472;SDS011;67434;50.956;6.918;2023-03-04T11:42:34;7.45;;;1.30;;
49472;SDS011;67434;50.956;6.918;2023-03-04T11:45:02;10.55;;;1.40;;
49472;SDS011;67434;50.956;6.918;2023-03-04T11:47:40;3.47;;;1.02;;
49472;SDS011;67434;50.956;6.918;2023-03-04T11:50:34;5.10;;;1.50;;
49472;SDS011;67434;50.956;6.918;2023-03-04T11:59:15;5.07;;;1.73;;
49472;SDS011;67434;50.956;6.918;2023-03-04T12:10:43;3.17;;;0.80;;
49472;SDS011;67434;50.956;6.918;2023-03-04T12:27:16;1.35;;;0.55;;
49472;SDS011;67434;50.956;6.918;2023-03-04T12:29:56;4.68;;;1.13;;
49472;SDS011;67434;50.956;6.918;2023-03-04T12:32:33;4.90;;;1.08;;
49472;SDS011;67434;50.956;6.918;2023-03-04T12:35:19;5.50;;;0.73;;
49472;SDS011;67434;50.956;6.918;2023-03-04T12:37:56;2.78;;;1.52;;
49472;SDS011;67434;50.956;6.918;2023-03-04T12:54:33;4.20;;;0.70;;
49472;SDS011;67434;50.956;6.918;2023-03-04T12:57:18;4.65;;;0.80;;
49472;SDS011;67434;50.956;6.918;2023-03-04T13:10:38;3.33;;;0.47;;
49472;SDS011;67434;50.956;6.918;2023-03-04T13:13:03;4.05;;;0.50;;
49472;SDS011;67434;50.956;6.918;2023-03-04T13:15:33;1.70;;;0.60;;
49472;SDS011;67434;50.956;6.918;2023-03-04T13:18:12;4.03;;;0.65;;
49472;SDS011;67434;50.956;6.918;2023-03-04T13:23:44;3.45;;;0.63;;
49472;SDS011;67434;50.956;6.918;2023-03-04T13:26:15;0.93;;;0.40;;
49472;SDS011;67434;50.956;6.918;2023-03-04T13:28:43;2.92;;;0.45;;
49472;SDS011;67434;50.956;6.918;2023-03-04T13:31:13;1.33;;;0.45;;
49472;SDS011;67434;50.956;6.918;2023-03-04T13:33:52;2.80;;;0.40;;
49472;SDS011;67434;50.956;6.918;2023-03-04T13:39:41;1.30;;;0.40;;
49472;SDS011;67434;50.956;6.918;2023-03-04T13:41:49;2.63;;;0.50;;
49472;SDS011;67434;50.956;6.918;2023-03-04T13:44:34;4.82;;;0.50;;
49472;SDS011;67434;50.956;6.918;2023-03-04T13:47:21;2.53;;;0.40;;
49472;SDS011;67434;50.956;6.918;2023-03-04T13:53:36;3.40;;;0.70;;
49472;SDS011;67434;50.956;6.918;2023-03-04T13:58:31;1.50;;;0.95;;
49472;SDS011;67434;50.956;6.918;2023-03-04T14:00:57;1.92;;;0.60;;
49472;SDS011;67434;50.956;6.918;2023-03-04T14:03:24;1.10;;;0.40;;
49472;SDS011;67434;50.956;6.918;2023-03-04T14:08:35;2.83;;;0.80;;
49472;SDS011;67434;50.956;6.918;2023-03-04T14:11:00;0.85;;;0.55;;
49472;SDS011;67434;50.956;6.918;2023-03-04T14:13:26;3.22;;;0.80;;
49472;SDS011;67434;50.956;6.918;2023-03-04T14:15:55;4.28;;;0.77;;
49472;SDS011;67434;50.956;6.918;2023-03-04T14:18:30;5.75;;;0.73;;
49472;SDS011;67434;50.956;6.918;2023-03-04T14:20:56;2.30;;;1.17;;
49472;SDS011;67434;50.956;6.918;2023-03-04T14:23:30;2.53;;;1.13;;
49472;SDS011;67434;50.956;6.918;2023-03-04T14:26:06;1.38;;;0.63;;
49472;SDS011;67434;50.956;6.918;2023-03-04T14:28:42;1.90;;;0.60;;
49472;SDS011;67434;50.956;6.918;2023-03-04T14:31:11;2.35;;;0.90;;
49472;SDS011;67434;50.956;6.918;2023-03-04T14:33:43;3.45;;;1.10;;
49472;SDS011;67434;50.956;6.918;2023-03-04T14:36:14;3.60;;;0.82;;
49472;SDS011;67434;50.956;6.918;2023-03-04T14:38:42;3.25;;;0.90;;
49472;SDS011;67434;50.956;6.918;2023-03-04T14:41:19;3.95;;;0.70;;
49472;SDS011;67434;50.956;6.918;2023-03-04T14:44:22;2.10;;;0.80;;
49472;SDS011;67434;50.956;6.918;2023-03-04T14:47:08;3.45;;;0.90;;
49472;SDS011;67434;50.956;6.918;2023-03-04T14:50:00;4.35;;;0.65;;
49472;SDS011;67434;50.956;6.918;2023-03-04T14:52:32;2.50;;;1.05;;
49472;SDS011;67434;50.956;6.918;2023-03-04T14:57:38;6.85;;;0.80;;
49472;SDS011;67434;50.956;6.918;2023-03-04T15:02:55;1.52;;;0.70;;
49472;SDS011;67434;50.956;6.918;2023-03-04T15:05:32;2.50;;;1.00;;
49472;SDS011;67434;50.956;6.918;2023-03-04T15:08:31;5.50;;;0.82;;
49472;SDS011;67434;50.956;6.918;2023-03-04T15:11:01;2.28;;;1.50;;
49472;SDS011;67434;50.956;6.918;2023-03-04T15:16:06;5.70;;;1.27;;
49472;SDS011;67434;50.956;6.918;2023-03-04T15:18:33;4.70;;;0.88;;
49472;SDS011;67434;50.956;6.918;2023-03-04T15:21:00;2.50;;;0.98;;
49472;SDS011;67434;50.956;6.918;2023-03-04T15:23:48;4.65;;;1.90;;
49472;SDS011;67434;50.956;6.918;2023-03-04T15:26:14;3.28;;;1.58;;
49472;SDS011;67434;50.956;6.918;2023-03-04T15:28:40;3.35;;;1.70;;
49472;SDS011;67434;50.956;6.918;2023-03-04T15:31:12;6.38;;;1.80;;
49472;SDS011;67434;50.956;6.918;2023-03-04T15:33:40;6.25;;;1.95;;
49472;SDS011;67434;50.956;6.918;2023-03-04T15:36:05;4.57;;;2.05;;
49472;SDS011;67434;50.956;6.918;2023-03-04T15:38:38;4.40;;;2.03;;
49472;SDS011;67434;50.956;6.918;2023-03-04T15:41:07;3.22;;;1.40;;
49472;SDS011;67434;50.956;6.918;2023-03-04T15:43:35;8.15;;;1.45;;
49472;SDS011;67434;50.956;6.918;2023-03-04T15:46:01;4.47;;;1.40;;
49472;SDS011;67434;50.956;6.918;2023-03-04T15:48:27;12.05;;;1.70;;
49472;SDS011;67434;50.956;6.918;2023-03-04T15:50:54;5.40;;;1.80;;
49472;SDS011;67434;50.956;6.918;2023-03-04T15:53:36;10.77;;;2.03;;
49472;SDS011;67434;50.956;6.918;2023-03-04T15:56:06;2.92;;;1.50;;
49472;SDS011;67434;50.956;6.918;2023-03-04T15:58:36;5.40;;;2.03;;
49472;SDS011;67434;50.956;6.918;2023-03-04T16:01:03;5.65;;;2.03;;
49472;SDS011;67434;50.956;6.918;2023-03-04T16:03:29;8.35;;;2.55;;
49472;SDS011;67434;50.956;6.918;2023-03-04T16:05:55;4.80;;;1.58;;
49472;SDS011;67434;50.956;6.918;2023-03-04T16:08:21;2.58;;;1.30;;
49472;SDS011;67434;50.956;6.918;2023-03-04T16:10:49;8.23;;;2.00;;
49472;SDS011;67434;50.956;6.918;2023-03-04T16:13:16;4.20;;;1.67;;
49472;SDS011;67434;50.956;6.918;2023-03-04T16:15:43;2.88;;;1.48;;
49472;SDS011;67434;50.956;6.918;2023-03-04T16:18:10;2.58;;;1.65;;
49472;SDS011;67434;50.956;6.918;2023-03-04T16:20:36;6.85;;;2.55;;
49472;SDS011;67434;50.956;6.918;2023-03-04T16:23:03;6.50;;;1.90;;
49472;SDS011;67434;50.956;6.918;2023-03-04T16:25:29;3.50;;;1.90;;
49472;SDS011;67434;50.956;6.918;2023-03-04T16:27:55;7.97;;;2.22;;
49472;SDS011;67434;50.956;6.918;2023-03-04T16:30:23;5.75;;;2.28;;
49472;SDS011;67434;50.956;6.918;2023-03-04T16:32:50;3.03;;;2.13;;
49472;SDS011;67434;50.956;6.918;2023-03-04T16:35:17;4.85;;;2.15;;
49472;SDS011;67434;50.956;6.918;2023-03-04T16:37:43;3.85;;;2.30;;